XBPDL MMUN-MMUN
Flight info
| Callsign | XBPDL |
|---|---|
| Flight time | 0h 16m |
| Altitude | 1500 |
| Route | CUN |
| Aircraft | P28A/L-SD/C |
Departure
| Time | 2026-04-27 02:56 |
|---|---|
| Airport | Cancún International Airport (MMUN) |
Arrival
| Time | 2026-04-27 03:12 |
|---|---|
| Airport | Cancún International Airport (MMUN) |
| Time | Latitude | Longitude | Altitude | Speed | Heading |
|---|---|---|---|---|---|
| 2026-04-27 02:47 | 21.03386 | -86.86418 | 24 ft | 0 kts | 128° |
| 2026-04-27 02:50 | 21.03384 | -86.86415 | 24 ft | 3 kts | 123° |
| 2026-04-27 02:50 | 21.03342 | -86.86423 | 24 ft | 8 kts | 232° |
| 2026-04-27 02:50 | 21.03299 | -86.86453 | 24 ft | 9 kts | 214° |
| 2026-04-27 02:51 | 21.03239 | -86.86497 | 24 ft | 11 kts | 209° |
| 2026-04-27 02:51 | 21.03161 | -86.86557 | 25 ft | 15 kts | 243° |
| 2026-04-27 02:51 | 21.03201 | -86.86655 | 25 ft | 19 kts | 308° |
| 2026-04-27 02:51 | 21.03289 | -86.86799 | 25 ft | 27 kts | 303° |
| 2026-04-27 02:52 | 21.03392 | -86.86962 | 25 ft | 25 kts | 304° |
| 2026-04-27 02:52 | 21.03483 | -86.87110 | 25 ft | 22 kts | 304° |
| 2026-04-27 02:52 | 21.03561 | -86.87243 | 26 ft | 20 kts | 293° |
| 2026-04-27 02:52 | 21.03586 | -86.87373 | 28 ft | 13 kts | 228° |
| 2026-04-27 02:53 | 21.03572 | -86.87382 | 28 ft | 0 kts | 179° |
| 2026-04-27 02:53 | 21.03535 | -86.87366 | 29 ft | 12 kts | 157° |
| 2026-04-27 02:53 | 21.03460 | -86.87381 | 30 ft | 12 kts | 139° |
| 2026-04-27 02:54 | 21.03451 | -86.87370 | 30 ft | 0 kts | 124° |
| 2026-04-27 02:55 | 21.03451 | -86.87368 | 30 ft | 3 kts | 126° |
| 2026-04-27 02:55 | 21.03337 | -86.87190 | 30 ft | 55 kts | 124° |
| 2026-04-27 02:55 | 21.03047 | -86.86731 | 95 ft | 85 kts | 124° |
| 2026-04-27 02:55 | 21.02722 | -86.86214 | 380 ft | 81 kts | 125° |
| 2026-04-27 02:56 | 21.02427 | -86.85683 | 627 ft | 83 kts | 119° |
| 2026-04-27 02:56 | 21.02086 | -86.85196 | 828 ft | 88 kts | 146° |
| 2026-04-27 02:56 | 21.01404 | -86.85122 | 818 ft | 111 kts | 197° |
| 2026-04-27 02:56 | 21.00748 | -86.85566 | 905 ft | 114 kts | 210° |
| 2026-04-27 02:57 | 21.00182 | -86.86142 | 1071 ft | 111 kts | 237° |
| 2026-04-27 02:57 | 21.00197 | -86.86961 | 1112 ft | 126 kts | 297° |
| 2026-04-27 02:57 | 21.00687 | -86.87741 | 1172 ft | 126 kts | 306° |
| 2026-04-27 02:57 | 21.01231 | -86.88515 | 1152 ft | 134 kts | 308° |
| 2026-04-27 02:58 | 21.01848 | -86.89251 | 1226 ft | 132 kts | 311° |
| 2026-04-27 02:58 | 21.02412 | -86.90027 | 1236 ft | 133 kts | 306° |
| 2026-04-27 02:58 | 21.02968 | -86.90806 | 1224 ft | 133 kts | 307° |
| 2026-04-27 02:58 | 21.03545 | -86.91586 | 1176 ft | 134 kts | 309° |
| 2026-04-27 02:59 | 21.04140 | -86.92277 | 1281 ft | 116 kts | 318° |
| 2026-04-27 02:59 | 21.04850 | -86.92558 | 1326 ft | 110 kts | 5° |
| 2026-04-27 02:59 | 21.05575 | -86.92309 | 1044 ft | 110 kts | 41° |
| 2026-04-27 02:59 | 21.06148 | -86.91873 | 1011 ft | 87 kts | 63° |
| 2026-04-27 03:00 | 21.05999 | -86.91278 | 736 ft | 95 kts | 131° |
| 2026-04-27 03:00 | 21.05578 | -86.90736 | 580 ft | 94 kts | 126° |
| 2026-04-27 03:00 | 21.05226 | -86.90166 | 438 ft | 90 kts | 124° |
| 2026-04-27 03:00 | 21.04873 | -86.89620 | 290 ft | 91 kts | 126° |
| 2026-04-27 03:01 | 21.04506 | -86.89058 | 111 ft | 90 kts | 124° |
| 2026-04-27 03:01 | 21.04195 | -86.88551 | 32 ft | 70 kts | 123° |
| 2026-04-27 03:01 | 21.03966 | -86.88180 | 29 ft | 51 kts | 122° |
| 2026-04-27 03:01 | 21.03751 | -86.87855 | 30 ft | 71 kts | 124° |
| 2026-04-27 03:02 | 21.03429 | -86.87333 | 151 ft | 89 kts | 124° |
| 2026-04-27 03:02 | 21.03098 | -86.86767 | 372 ft | 90 kts | 124° |
| 2026-04-27 03:02 | 21.02777 | -86.86185 | 542 ft | 94 kts | 121° |
| 2026-04-27 03:02 | 21.02407 | -86.85643 | 768 ft | 90 kts | 143° |
| 2026-04-27 03:03 | 21.01763 | -86.85486 | 848 ft | 103 kts | 184° |
| 2026-04-27 03:03 | 21.00557 | -86.86289 | 1017 ft | 110 kts | 241° |
| 2026-04-27 03:03 | 21.00599 | -86.87112 | 996 ft | 120 kts | 294° |
| 2026-04-27 03:04 | 21.01029 | -86.87868 | 1035 ft | 115 kts | 302° |
| 2026-04-27 03:04 | 21.01463 | -86.88566 | 1096 ft | 115 kts | 302° |
| 2026-04-27 03:04 | 21.01780 | -86.89036 | 1070 ft | 119 kts | 306° |
| 2026-04-27 03:04 | 21.02240 | -86.89734 | 1190 ft | 108 kts | 301° |
| 2026-04-27 03:05 | 21.02661 | -86.90440 | 1097 ft | 115 kts | 298° |
| 2026-04-27 03:05 | 21.03062 | -86.91152 | 1140 ft | 102 kts | 298° |
| 2026-04-27 03:05 | 21.03606 | -86.91581 | 1035 ft | 101 kts | 349° |
| 2026-04-27 03:05 | 21.04242 | -86.91411 | 967 ft | 92 kts | 34° |
| 2026-04-27 03:06 | 21.04766 | -86.91037 | 814 ft | 94 kts | 43° |
| 2026-04-27 03:06 | 21.05105 | -86.90491 | 679 ft | 90 kts | 84° |
| 2026-04-27 03:06 | 21.04947 | -86.89829 | 417 ft | 96 kts | 118° |
| 2026-04-27 03:06 | 21.04611 | -86.89228 | 164 ft | 93 kts | 124° |
| 2026-04-27 03:07 | 21.04282 | -86.88698 | 33 ft | 75 kts | 124° |
| 2026-04-27 03:07 | 21.04028 | -86.88292 | 28 ft | 69 kts | 124° |
| 2026-04-27 03:07 | 21.03732 | -86.87801 | 189 ft | 81 kts | 122° |
| 2026-04-27 03:07 | 21.03407 | -86.87277 | 395 ft | 88 kts | 126° |
| 2026-04-27 03:08 | 21.03070 | -86.86731 | 597 ft | 89 kts | 123° |
| 2026-04-27 03:08 | 21.02557 | -86.86301 | 698 ft | 99 kts | 159° |
| 2026-04-27 03:08 | 21.01891 | -86.86390 | 893 ft | 102 kts | 205° |
| 2026-04-27 03:08 | 21.01309 | -86.86798 | 1103 ft | 99 kts | 208° |
| 2026-04-27 03:09 | 21.00860 | -86.87331 | 1239 ft | 97 kts | 246° |
| 2026-04-27 03:09 | 21.01040 | -86.88024 | 1115 ft | 95 kts | 295° |
| 2026-04-27 03:09 | 21.01347 | -86.88622 | 966 ft | 95 kts | 294° |
| 2026-04-27 03:09 | 21.01665 | -86.89233 | 865 ft | 93 kts | 301° |
| 2026-04-27 03:10 | 21.02008 | -86.89766 | 845 ft | 90 kts | 308° |
| 2026-04-27 03:10 | 21.02445 | -86.90355 | 879 ft | 104 kts | 306° |
| 2026-04-27 03:10 | 21.02954 | -86.90954 | 933 ft | 116 kts | 317° |
| 2026-04-27 03:10 | 21.03705 | -86.91333 | 958 ft | 124 kts | 0° |
| 2026-04-27 03:11 | 21.04401 | -86.90974 | 809 ft | 106 kts | 62° |
| 2026-04-27 03:11 | 21.04497 | -86.90212 | 463 ft | 98 kts | 92° |
| 2026-04-27 03:11 | 21.04518 | -86.89523 | 227 ft | 87 kts | 95° |
| 2026-04-27 03:11 | 21.04388 | -86.88926 | 51 ft | 78 kts | 116° |
| 2026-04-27 03:12 | 21.04137 | -86.88481 | 30 ft | 60 kts | 122° |
| 2026-04-27 03:12 | 21.03920 | -86.88123 | 29 ft | 55 kts | 123° |
| 2026-04-27 03:12 | 21.03848 | -86.87823 | 27 ft | 27 kts | 95° |
| 2026-04-27 03:12 | 21.03838 | -86.87696 | 26 ft | 16 kts | 97° |
| 2026-04-27 03:13 | 21.03822 | -86.87589 | 25 ft | 15 kts | 77° |
| 2026-04-27 03:13 | 21.03834 | -86.87496 | 24 ft | 12 kts | 44° |
| 2026-04-27 03:13 | 21.03888 | -86.87456 | 24 ft | 0 kts | 33° |